sensor_id;sensor_type;location;lat;lon;timestamp;pressure;altitude;pressure_sealevel;temperature;humidity
19676;BME280;39539;52.202;9.876;2023-05-02T00:00:40;100898.66;;;11.09;100.00
19676;BME280;39539;52.202;9.876;2023-05-02T00:03:06;100886.81;;;11.05;100.00
19676;BME280;39539;52.202;9.876;2023-05-02T00:05:33;100904.59;;;11.18;100.00
19676;BME280;39539;52.202;9.876;2023-05-02T00:07:59;100885.59;;;11.08;100.00
19676;BME280;39539;52.202;9.876;2023-05-02T00:10:24;100894.19;;;11.10;100.00
19676;BME280;39539;52.202;9.876;2023-05-02T00:12:51;100898.50;;;11.04;100.00
19676;BME280;39539;52.202;9.876;2023-05-02T00:15:16;100899.50;;;10.96;100.00
19676;BME280;39539;52.202;9.876;2023-05-02T00:17:42;100905.03;;;11.08;100.00
19676;BME280;39539;52.202;9.876;2023-05-02T00:20:09;100895.38;;;11.00;100.00
19676;BME280;39539;52.202;9.876;2023-05-02T00:22:36;100898.25;;;11.12;100.00
19676;BME280;39539;52.202;9.876;2023-05-02T00:25:01;100915.88;;;11.20;100.00
19676;BME280;39539;52.202;9.876;2023-05-02T00:27:28;100901.13;;;11.17;100.00
19676;BME280;39539;52.202;9.876;2023-05-02T00:29:54;100915.88;;;11.27;100.00
19676;BME280;39539;52.202;9.876;2023-05-02T00:32:19;100914.22;;;11.26;100.00
19676;BME280;39539;52.202;9.876;2023-05-02T00:34:45;100898.47;;;11.17;100.00
19676;BME280;39539;52.202;9.876;2023-05-02T00:37:10;100902.38;;;11.21;100.00
19676;BME280;39539;52.202;9.876;2023-05-02T00:39:37;100917.91;;;11.31;100.00
19676;BME280;39539;52.202;9.876;2023-05-02T00:42:02;100913.00;;;11.35;100.00
19676;BME280;39539;52.202;9.876;2023-05-02T00:44:29;100902.75;;;11.32;100.00
19676;BME280;39539;52.202;9.876;2023-05-02T00:46:57;100917.91;;;11.31;100.00
19676;BME280;39539;52.202;9.876;2023-05-02T00:49:25;100916.25;;;11.23;100.00
19676;BME280;39539;52.202;9.876;2023-05-02T00:51:50;100925.28;;;11.29;100.00
19676;BME280;39539;52.202;9.876;2023-05-02T00:54:16;100920.78;;;11.30;100.00
19676;BME280;39539;52.202;9.876;2023-05-02T00:56:41;100911.78;;;11.11;100.00
19676;BME280;39539;52.202;9.876;2023-05-02T00:59:09;100911.16;;;11.02;100.00
19676;BME280;39539;52.202;9.876;2023-05-02T01:04:31;100916.28;;;10.90;100.00
19676;BME280;39539;52.202;9.876;2023-05-02T01:15:15;100924.03;;;10.78;100.00
19676;BME280;39539;52.202;9.876;2023-05-02T01:17:43;100919.91;;;10.69;100.00
19676;BME280;39539;52.202;9.876;2023-05-02T01:20:16;100928.53;;;10.85;100.00
19676;BME280;39539;52.202;9.876;2023-05-02T01:22:44;100926.69;;;10.92;100.00
19676;BME280;39539;52.202;9.876;2023-05-02T01:28:16;100931.81;;;11.07;100.00
19676;BME280;39539;52.202;9.876;2023-05-02T01:30:47;100941.84;;;11.11;100.00
19676;BME280;39539;52.202;9.876;2023-05-02T01:33:17;100927.13;;;11.02;100.00
19676;BME280;39539;52.202;9.876;2023-05-02T01:35:45;100933.66;;;11.06;100.00
19676;BME280;39539;52.202;9.876;2023-05-02T01:38:13;100934.47;;;11.07;100.00
19676;BME280;39539;52.202;9.876;2023-05-02T01:40:40;100917.09;;;11.04;100.00
19676;BME280;39539;52.202;9.876;2023-05-02T01:43:08;100938.16;;;11.12;100.00
19676;BME280;39539;52.202;9.876;2023-05-02T01:45:34;100938.56;;;11.09;100.00
19676;BME280;39539;52.202;9.876;2023-05-02T01:48:01;100938.16;;;11.06;100.00
19676;BME280;39539;52.202;9.876;2023-05-02T01:50:29;100942.06;;;11.03;100.00
19676;BME280;39539;52.202;9.876;2023-05-02T01:52:57;100948.44;;;11.15;100.00
19676;BME280;39539;52.202;9.876;2023-05-02T01:55:24;100946.16;;;11.06;100.00
19676;BME280;39539;52.202;9.876;2023-05-02T01:57:53;100947.41;;;11.10;100.00
19676;BME280;39539;52.202;9.876;2023-05-02T02:00:21;100954.75;;;11.14;100.00
19676;BME280;39539;52.202;9.876;2023-05-02T02:02:50;100951.28;;;11.14;100.00
19676;BME280;39539;52.202;9.876;2023-05-02T02:05:19;100952.72;;;11.16;100.00
19676;BME280;39539;52.202;9.876;2023-05-02T02:07:47;100949.03;;;11.17;100.00
19676;BME280;39539;52.202;9.876;2023-05-02T02:10:13;100949.03;;;11.17;100.00
19676;BME280;39539;52.202;9.876;2023-05-02T02:12:41;100961.31;;;11.25;100.00
19676;BME280;39539;52.202;9.876;2023-05-02T02:15:16;100962.13;;;11.32;100.00
19676;BME280;39539;52.202;9.876;2023-05-02T02:17:46;100954.97;;;11.33;100.00
19676;BME280;39539;52.202;9.876;2023-05-02T02:20:14;100956.59;;;11.34;100.00
19676;BME280;39539;52.202;9.876;2023-05-02T02:22:41;100961.31;;;11.38;100.00
19676;BME280;39539;52.202;9.876;2023-05-02T02:25:11;100969.50;;;11.37;100.00
19676;BME280;39539;52.202;9.876;2023-05-02T02:27:39;100956.19;;;11.30;100.00
19676;BME280;39539;52.202;9.876;2023-05-02T02:30:06;100974.22;;;11.41;100.00
19676;BME280;39539;52.202;9.876;2023-05-02T02:32:34;100977.69;;;11.42;100.00
19676;BME280;39539;52.202;9.876;2023-05-02T02:35:00;100974.22;;;11.41;100.00
19676;BME280;39539;52.202;9.876;2023-05-02T02:37:50;100984.06;;;11.41;100.00
19676;BME280;39539;52.202;9.876;2023-05-02T02:40:43;100986.09;;;11.39;100.00
19676;BME280;39539;52.202;9.876;2023-05-02T02:43:35;100987.91;;;11.32;100.00
19676;BME280;39539;52.202;9.876;2023-05-02T02:48:55;100985.44;;;11.17;100.00
19676;BME280;39539;52.202;9.876;2023-05-02T02:51:43;100992.00;;;11.14;100.00
19676;BME280;39539;52.202;9.876;2023-05-02T02:54:17;100994.88;;;11.13;100.00
19676;BME280;39539;52.202;9.876;2023-05-02T02:56:46;100998.53;;;11.05;100.00
19676;BME280;39539;52.202;9.876;2023-05-02T02:59:32;101007.56;;;11.04;100.00
19676;BME280;39539;52.202;9.876;2023-05-02T03:02:11;101011.63;;;11.00;100.00
19676;BME280;39539;52.202;9.876;2023-05-02T03:04:43;101015.31;;;10.99;100.00
19676;BME280;39539;52.202;9.876;2023-05-02T03:07:10;101018.97;;;10.98;100.00
19676;BME280;39539;52.202;9.876;2023-05-02T03:09:45;101030.06;;;11.08;100.00
19676;BME280;39539;52.202;9.876;2023-05-02T03:12:12;101036.00;;;11.10;100.00
19676;BME280;39539;52.202;9.876;2023-05-02T03:14:38;101034.16;;;11.17;100.00
19676;BME280;39539;52.202;9.876;2023-05-02T03:17:05;101017.16;;;11.12;100.00
19676;BME280;39539;52.202;9.876;2023-05-02T03:19:34;101043.19;;;11.23;100.00
19676;BME280;39539;52.202;9.876;2023-05-02T03:21:59;101034.56;;;11.14;100.00
19676;BME280;39539;52.202;9.876;2023-05-02T03:24:26;101053.81;;;11.23;100.00
19676;BME280;39539;52.202;9.876;2023-05-02T03:26:56;101055.66;;;11.29;100.00
19676;BME280;39539;52.202;9.876;2023-05-02T03:29:22;101046.28;;;11.27;100.00
19676;BME280;39539;52.202;9.876;2023-05-02T03:31:48;101057.75;;;11.27;100.00
19676;BME280;39539;52.202;9.876;2023-05-02T03:34:14;101049.53;;;11.22;100.00
19676;BME280;39539;52.202;9.876;2023-05-02T03:36:39;101057.09;;;11.25;100.00
19676;BME280;39539;52.202;9.876;2023-05-02T03:39:04;101051.97;;;11.23;100.00
19676;BME280;39539;52.202;9.876;2023-05-02T03:41:31;101056.28;;;11.24;100.00
19676;BME280;39539;52.202;9.876;2023-05-02T03:43:56;101044.41;;;11.20;100.00
19676;BME280;39539;52.202;9.876;2023-05-02T03:46:22;101056.06;;;11.26;100.00
19676;BME280;39539;52.202;9.876;2023-05-02T03:48:47;101060.41;;;11.27;100.00
19676;BME280;39539;52.202;9.876;2023-05-02T03:51:13;101056.91;;;11.27;100.00
19676;BME280;39539;52.202;9.876;2023-05-02T03:53:38;101066.31;;;11.29;100.00
19676;BME280;39539;52.202;9.876;2023-05-02T03:56:05;101065.50;;;11.29;100.00
19676;BME280;39539;52.202;9.876;2023-05-02T03:58:32;101061.22;;;11.28;100.00
19676;BME280;39539;52.202;9.876;2023-05-02T04:00:57;101065.50;;;11.29;100.00
19676;BME280;39539;52.202;9.876;2023-05-02T04:03:24;101078.00;;;11.28;100.00
19676;BME280;39539;52.202;9.876;2023-05-02T04:05:51;101077.81;;;11.30;100.00
19676;BME280;39539;52.202;9.876;2023-05-02T04:08:17;101073.09;;;11.32;100.00
19676;BME280;39539;52.202;9.876;2023-05-02T04:10:42;101077.81;;;11.36;100.00
19676;BME280;39539;52.202;9.876;2023-05-02T04:13:09;101076.38;;;11.34;100.00
19676;BME280;39539;52.202;9.876;2023-05-02T04:15:36;101071.03;;;11.27;100.00
19676;BME280;39539;52.202;9.876;2023-05-02T04:18:02;101086.59;;;11.37;100.00
19676;BME280;39539;52.202;9.876;2023-05-02T04:20:29;101090.72;;;11.39;100.00
19676;BME280;39539;52.202;9.876;2023-05-02T04:22:56;101097.47;;;11.42;100.00
19676;BME280;39539;52.202;9.876;2023-05-02T04:25:22;101102.38;;;11.38;100.00
19676;BME280;39539;52.202;9.876;2023-05-02T04:27:48;101098.06;;;11.37;100.00
19676;BME280;39539;52.202;9.876;2023-05-02T04:30:15;101106.09;;;11.44;100.00
19676;BME280;39539;52.202;9.876;2023-05-02T04:32:41;101108.75;;;11.44;100.00
19676;BME280;39539;52.202;9.876;2023-05-02T04:35:07;101109.97;;;11.41;100.00
19676;BME280;39539;52.202;9.876;2023-05-02T04:37:34;101114.25;;;11.42;100.00
19676;BME280;39539;52.202;9.876;2023-05-02T04:40:00;101121.03;;;11.45;100.00
19676;BME280;39539;52.202;9.876;2023-05-02T04:42:26;101125.94;;;11.48;100.00
19676;BME280;39539;52.202;9.876;2023-05-02T04:44:51;101123.28;;;11.41;100.00
19676;BME280;39539;52.202;9.876;2023-05-02T04:47:18;101125.72;;;11.43;100.00
19676;BME280;39539;52.202;9.876;2023-05-02T04:49:44;101128.81;;;11.46;100.00
19676;BME280;39539;52.202;9.876;2023-05-02T04:52:09;101136.59;;;11.48;100.00
19676;BME280;39539;52.202;9.876;2023-05-02T04:54:36;101130.84;;;11.44;100.00
19676;BME280;39539;52.202;9.876;2023-05-02T04:57:03;101139.25;;;11.48;100.00
19676;BME280;39539;52.202;9.876;2023-05-02T04:59:32;101144.41;;;11.50;100.00
19676;BME280;39539;52.202;9.876;2023-05-02T05:01:59;101147.25;;;11.48;100.00
19676;BME280;39539;52.202;9.876;2023-05-02T05:04:37;101159.16;;;11.52;100.00
19676;BME280;39539;52.202;9.876;2023-05-02T05:07:02;101151.56;;;11.56;100.00
19676;BME280;39539;52.202;9.876;2023-05-02T05:09:28;101161.44;;;11.75;100.00
19676;BME280;39539;52.202;9.876;2023-05-02T05:11:54;101156.38;;;11.87;100.00
19676;BME280;39539;52.202;9.876;2023-05-02T05:14:19;101160.47;;;11.96;100.00
19676;BME280;39539;52.202;9.876;2023-05-02T05:16:46;101161.72;;;12.00;100.00
19676;BME280;39539;52.202;9.876;2023-05-02T05:19:11;101166.41;;;11.98;100.00
19676;BME280;39539;52.202;9.876;2023-05-02T05:21:37;101166.41;;;11.98;100.00
19676;BME280;39539;52.202;9.876;2023-05-02T05:24:02;101167.66;;;12.02;100.00
19676;BME280;39539;52.202;9.876;2023-05-02T05:26:28;101175.66;;;12.09;100.00
19676;BME280;39539;52.202;9.876;2023-05-02T05:28:53;101169.28;;;12.17;100.00
19676;BME280;39539;52.202;9.876;2023-05-02T05:31:19;101163.38;;;12.15;100.00
19676;BME280;39539;52.202;9.876;2023-05-02T05:33:44;101195.31;;;12.28;100.00
19676;BME280;39539;52.202;9.876;2023-05-02T05:36:11;101191.25;;;12.12;100.00
19676;BME280;39539;52.202;9.876;2023-05-02T05:38:40;101178.50;;;11.94;100.00
19676;BME280;39539;52.202;9.876;2023-05-02T05:41:06;101184.25;;;11.98;100.00
19676;BME280;39539;52.202;9.876;2023-05-02T05:43:36;101184.84;;;11.93;100.00
19676;BME280;39539;52.202;9.876;2023-05-02T05:46:02;101203.91;;;11.97;100.00
19676;BME280;39539;52.202;9.876;2023-05-02T05:48:27;101206.16;;;11.93;100.00
19676;BME280;39539;52.202;9.876;2023-05-02T05:50:53;101202.66;;;11.86;100.00
19676;BME280;39539;52.202;9.876;2023-05-02T05:53:33;101208.84;;;11.86;100.00
19676;BME280;39539;52.202;9.876;2023-05-02T05:56:20;101227.25;;;11.88;100.00
19676;BME280;39539;52.202;9.876;2023-05-02T05:58:48;101227.81;;;11.77;100.00
19676;BME280;39539;52.202;9.876;2023-05-02T06:01:15;101223.38;;;11.01;100.00
19676;BME280;39539;52.202;9.876;2023-05-02T06:03:40;101226.09;;;10.73;100.00
19676;BME280;39539;52.202;9.876;2023-05-02T06:06:07;101247.94;;;10.68;100.00
19676;BME280;39539;52.202;9.876;2023-05-02T06:08:33;101243.41;;;10.41;100.00
19676;BME280;39539;52.202;9.876;2023-05-02T06:10:59;101256.16;;;10.45;100.00
19676;BME280;39539;52.202;9.876;2023-05-02T06:13:26;101264.69;;;10.41;100.00
19676;BME280;39539;52.202;9.876;2023-05-02T06:15:51;101281.00;;;10.38;100.00
19676;BME280;39539;52.202;9.876;2023-05-02T06:18:17;101275.28;;;10.19;100.00
19676;BME280;39539;52.202;9.876;2023-05-02T06:20:42;101281.88;;;10.23;100.00
19676;BME280;39539;52.202;9.876;2023-05-02T06:23:08;101300.00;;;10.34;100.00
19676;BME280;39539;52.202;9.876;2023-05-02T06:25:36;101312.03;;;10.30;100.00
19676;BME280;39539;52.202;9.876;2023-05-02T06:28:02;101317.03;;;10.25;100.00
19676;BME280;39539;52.202;9.876;2023-05-02T06:30:27;101324.75;;;10.20;100.00
19676;BME280;39539;52.202;9.876;2023-05-02T06:32:53;101335.81;;;10.24;100.00
19676;BME280;39539;52.202;9.876;2023-05-02T06:35:18;101335.94;;;10.30;100.00
19676;BME280;39539;52.202;9.876;2023-05-02T06:37:45;101354.91;;;10.49;100.00
19676;BME280;39539;52.202;9.876;2023-05-02T06:40:10;101353.84;;;10.65;100.00
19676;BME280;39539;52.202;9.876;2023-05-02T06:42:39;101356.81;;;10.76;100.00
19676;BME280;39539;52.202;9.876;2023-05-02T06:45:04;101362.25;;;10.90;100.00
19676;BME280;39539;52.202;9.876;2023-05-02T06:47:30;101364.75;;;10.98;100.00
19676;BME280;39539;52.202;9.876;2023-05-02T06:49:55;101359.84;;;10.95;100.00
19676;BME280;39539;52.202;9.876;2023-05-02T06:52:21;101376.81;;;10.94;100.00
19676;BME280;39539;52.202;9.876;2023-05-02T06:54:48;101362.25;;;10.90;100.00
19676;BME280;39539;52.202;9.876;2023-05-02T06:57:14;101375.13;;;11.14;100.00
19676;BME280;39539;52.202;9.876;2023-05-02T06:59:39;101388.19;;;11.37;100.00
19676;BME280;39539;52.202;9.876;2023-05-02T07:02:06;101386.81;;;11.41;100.00
19676;BME280;39539;52.202;9.876;2023-05-02T07:04:32;101375.16;;;11.49;100.00
19676;BME280;39539;52.202;9.876;2023-05-02T07:06:57;101379.50;;;11.57;99.34
19676;BME280;39539;52.202;9.876;2023-05-02T07:09:23;101372.44;;;11.77;100.00
19676;BME280;39539;52.202;9.876;2023-05-02T07:11:48;101394.03;;;12.24;100.00
19676;BME280;39539;52.202;9.876;2023-05-02T07:14:13;101383.41;;;12.37;98.78
19676;BME280;39539;52.202;9.876;2023-05-02T07:16:40;101392.91;;;12.73;98.22
19676;BME280;39539;52.202;9.876;2023-05-02T07:19:05;101388.38;;;12.60;95.79
19676;BME280;39539;52.202;9.876;2023-05-02T07:21:31;101396.59;;;12.72;94.56
19676;BME280;39539;52.202;9.876;2023-05-02T07:23:56;101395.56;;;12.73;95.78
19676;BME280;39539;52.202;9.876;2023-05-02T07:26:22;101385.63;;;12.33;95.37
19676;BME280;39539;52.202;9.876;2023-05-02T07:28:47;101383.09;;;11.71;95.10
19676;BME280;39539;52.202;9.876;2023-05-02T07:31:13;101394.09;;;11.89;95.34
19676;BME280;39539;52.202;9.876;2023-05-02T07:33:38;101389.63;;;12.03;97.69
19676;BME280;39539;52.202;9.876;2023-05-02T07:36:04;101393.72;;;12.05;94.68
19676;BME280;39539;52.202;9.876;2023-05-02T07:38:29;101396.59;;;12.04;94.00
19676;BME280;39539;52.202;9.876;2023-05-02T07:40:59;101396.75;;;11.89;95.27
19676;BME280;39539;52.202;9.876;2023-05-02T07:43:25;101397.44;;;12.04;96.57
19676;BME280;39539;52.202;9.876;2023-05-02T07:45:51;101399.72;;;12.14;96.06
19676;BME280;39539;52.202;9.876;2023-05-02T07:48:16;101408.81;;;12.33;95.52
19676;BME280;39539;52.202;9.876;2023-05-02T07:50:41;101415.16;;;12.32;93.52
19676;BME280;39539;52.202;9.876;2023-05-02T07:53:07;101407.53;;;12.22;90.44
19676;BME280;39539;52.202;9.876;2023-05-02T07:55:33;101396.13;;;11.94;90.73
19676;BME280;39539;52.202;9.876;2023-05-02T07:57:59;101407.97;;;12.26;91.87
19676;BME280;39539;52.202;9.876;2023-05-02T08:00:25;101410.34;;;12.69;89.64
19676;BME280;39539;52.202;9.876;2023-05-02T08:02:51;101403.75;;;12.65;85.83
19676;BME280;39539;52.202;9.876;2023-05-02T08:05:17;101410.59;;;13.00;85.22
19676;BME280;39539;52.202;9.876;2023-05-02T08:07:42;101409.75;;;13.07;81.31
19676;BME280;39539;52.202;9.876;2023-05-02T08:10:08;101426.34;;;13.88;81.55
19676;BME280;39539;52.202;9.876;2023-05-02T08:12:40;101424.81;;;14.64;76.15
19676;BME280;39539;52.202;9.876;2023-05-02T08:15:07;101409.09;;;14.74;72.89
19676;BME280;39539;52.202;9.876;2023-05-02T08:17:32;101413.06;;;14.65;73.67
19676;BME280;39539;52.202;9.876;2023-05-02T08:19:58;101401.31;;;14.28;75.74
19676;BME280;39539;52.202;9.876;2023-05-02T08:22:25;101412.94;;;13.95;73.47
19676;BME280;39539;52.202;9.876;2023-05-02T08:24:50;101423.03;;;13.86;74.90
19676;BME280;39539;52.202;9.876;2023-05-02T08:27:16;101412.56;;;13.91;75.29
19676;BME280;39539;52.202;9.876;2023-05-02T08:29:41;101426.56;;;13.80;75.02
19676;BME280;39539;52.202;9.876;2023-05-02T08:32:07;101415.13;;;13.33;75.15
19676;BME280;39539;52.202;9.876;2023-05-02T08:34:32;101406.03;;;12.81;74.13
19676;BME280;39539;52.202;9.876;2023-05-02T08:36:58;101421.63;;;12.71;79.14
19676;BME280;39539;52.202;9.876;2023-05-02T08:39:23;101413.56;;;12.44;80.09
19676;BME280;39539;52.202;9.876;2023-05-02T08:41:49;101412.91;;;12.35;81.12
19676;BME280;39539;52.202;9.876;2023-05-02T08:44:15;101427.56;;;12.11;79.23
19676;BME280;39539;52.202;9.876;2023-05-02T08:46:40;101430.75;;;11.87;78.44
19676;BME280;39539;52.202;9.876;2023-05-02T08:49:09;101428.44;;;11.84;82.95
19676;BME280;39539;52.202;9.876;2023-05-02T08:51:36;101436.34;;;11.99;84.75
19676;BME280;39539;52.202;9.876;2023-05-02T08:54:02;101440.44;;;11.95;83.79
19676;BME280;39539;52.202;9.876;2023-05-02T08:56:28;101451.28;;;12.00;83.42
19676;BME280;39539;52.202;9.876;2023-05-02T08:58:56;101437.00;;;11.79;82.91
19676;BME280;39539;52.202;9.876;2023-05-02T09:01:22;101458.28;;;11.73;81.88
19676;BME280;39539;52.202;9.876;2023-05-02T09:03:48;101454.56;;;11.67;80.03
19676;BME280;39539;52.202;9.876;2023-05-02T09:06:19;101466.47;;;11.71;82.92
19676;BME280;39539;52.202;9.876;2023-05-02T09:08:47;101464.19;;;11.96;81.63
19676;BME280;39539;52.202;9.876;2023-05-02T09:11:14;101474.22;;;12.29;79.95
19676;BME280;39539;52.202;9.876;2023-05-02T09:13:42;101477.16;;;12.54;78.03
19676;BME280;39539;52.202;9.876;2023-05-02T09:16:15;101485.84;;;12.69;76.30
19676;BME280;39539;52.202;9.876;2023-05-02T09:18:52;101484.44;;;12.80;74.97
19676;BME280;39539;52.202;9.876;2023-05-02T09:21:26;101496.34;;;12.91;76.25
19676;BME280;39539;52.202;9.876;2023-05-02T09:23:59;101492.41;;;12.67;76.48
19676;BME280;39539;52.202;9.876;2023-05-02T09:26:28;101495.88;;;12.67;77.08
19676;BME280;39539;52.202;9.876;2023-05-02T09:28:57;101493.56;;;12.51;77.23
19676;BME280;39539;52.202;9.876;2023-05-02T09:31:34;101493.94;;;12.41;79.14
19676;BME280;39539;52.202;9.876;2023-05-02T09:34:12;101496.16;;;12.31;77.84
19676;BME280;39539;52.202;9.876;2023-05-02T09:36:42;101494.19;;;12.11;77.62
19676;BME280;39539;52.202;9.876;2023-05-02T09:39:12;101495.13;;;11.69;75.99
19676;BME280;39539;52.202;9.876;2023-05-02T09:41:42;101501.06;;;11.43;78.75
19676;BME280;39539;52.202;9.876;2023-05-02T09:44:09;101501.97;;;11.50;79.86
19676;BME280;39539;52.202;9.876;2023-05-02T09:46:42;101501.03;;;11.64;82.05
19676;BME280;39539;52.202;9.876;2023-05-02T09:49:08;101510.66;;;11.65;81.46
19676;BME280;39539;52.202;9.876;2023-05-02T09:51:37;101519.16;;;11.76;80.38
19676;BME280;39539;52.202;9.876;2023-05-02T09:54:02;101524.34;;;11.84;79.61
19676;BME280;39539;52.202;9.876;2023-05-02T09:56:29;101509.34;;;11.83;78.13
19676;BME280;39539;52.202;9.876;2023-05-02T09:59:15;101528.19;;;12.03;77.23
19676;BME280;39539;52.202;9.876;2023-05-02T10:01:41;101531.06;;;12.01;76.36
19676;BME280;39539;52.202;9.876;2023-05-02T10:04:13;101528.84;;;12.11;77.28
19676;BME280;39539;52.202;9.876;2023-05-02T10:06:43;101531.75;;;12.17;74.75
19676;BME280;39539;52.202;9.876;2023-05-02T10:09:09;101523.47;;;11.77;74.18
19676;BME280;39539;52.202;9.876;2023-05-02T10:11:38;101533.22;;;11.91;77.44
19676;BME280;39539;52.202;9.876;2023-05-02T10:14:11;101542.50;;;11.95;75.52
19676;BME280;39539;52.202;9.876;2023-05-02T10:16:46;101536.63;;;12.06;75.13
19676;BME280;39539;52.202;9.876;2023-05-02T10:19:23;101540.97;;;12.14;76.14
19676;BME280;39539;52.202;9.876;2023-05-02T10:21:52;101548.72;;;12.37;75.73
19676;BME280;39539;52.202;9.876;2023-05-02T10:24:18;101553.56;;;12.68;73.73
19676;BME280;39539;52.202;9.876;2023-05-02T10:26:45;101559.81;;;12.95;72.65
19676;BME280;39539;52.202;9.876;2023-05-02T10:29:11;101556.97;;;13.03;70.51
19676;BME280;39539;52.202;9.876;2023-05-02T10:31:37;101551.59;;;12.90;71.26
19676;BME280;39539;52.202;9.876;2023-05-02T10:34:03;101552.84;;;13.01;69.87
19676;BME280;39539;52.202;9.876;2023-05-02T10:36:31;101545.88;;;13.00;69.78
19676;BME280;39539;52.202;9.876;2023-05-02T10:38:57;101548.38;;;13.21;69.14
19676;BME280;39539;52.202;9.876;2023-05-02T10:41:25;101548.38;;;13.15;68.32
19676;BME280;39539;52.202;9.876;2023-05-02T10:43:52;101549.00;;;13.17;68.97
19676;BME280;39539;52.202;9.876;2023-05-02T10:46:38;101553.72;;;13.21;69.25
19676;BME280;39539;52.202;9.876;2023-05-02T10:49:09;101548.81;;;13.25;69.00
19676;BME280;39539;52.202;9.876;2023-05-02T10:51:36;101560.78;;;13.49;68.25
19676;BME280;39539;52.202;9.876;2023-05-02T10:59:28;101543.06;;;14.14;65.31
19676;BME280;39539;52.202;9.876;2023-05-02T11:01:55;101546.94;;;14.32;65.07
19676;BME280;39539;52.202;9.876;2023-05-02T11:04:20;101545.50;;;14.36;63.61
19676;BME280;39539;52.202;9.876;2023-05-02T11:11:54;101543.28;;;14.85;62.17
19676;BME280;39539;52.202;9.876;2023-05-02T11:24:47;101525.72;;;15.27;59.22
19676;BME280;39539;52.202;9.876;2023-05-02T11:29:54;101530.09;;;14.90;60.00
19676;BME280;39539;52.202;9.876;2023-05-02T11:32:20;101530.16;;;15.15;60.42
19676;BME280;39539;52.202;9.876;2023-05-02T11:34:47;101534.31;;;15.36;58.87
19676;BME280;39539;52.202;9.876;2023-05-02T11:37:15;101522.47;;;15.50;58.85
19676;BME280;39539;52.202;9.876;2023-05-02T11:39:46;101530.63;;;15.87;57.33
19676;BME280;39539;52.202;9.876;2023-05-02T11:42:29;101531.19;;;16.32;56.25
19676;BME280;39539;52.202;9.876;2023-05-02T11:44:59;101530.00;;;16.65;55.10
19676;BME280;39539;52.202;9.876;2023-05-02T11:47:26;101523.03;;;16.76;53.82
19676;BME280;39539;52.202;9.876;2023-05-02T11:49:56;101521.94;;;16.65;54.10
19676;BME280;39539;52.202;9.876;2023-05-02T11:52:22;101524.53;;;16.90;52.39
19676;BME280;39539;52.202;9.876;2023-05-02T11:54:52;101524.25;;;16.80;54.42
19676;BME280;39539;52.202;9.876;2023-05-02T11:57:19;101521.47;;;16.68;53.51
19676;BME280;39539;52.202;9.876;2023-05-02T11:59:56;101528.69;;;16.86;52.21
19676;BME280;39539;52.202;9.876;2023-05-02T12:02:39;101529.16;;;16.83;52.56
19676;BME280;39539;52.202;9.876;2023-05-02T12:05:10;101521.53;;;16.61;54.82
19676;BME280;39539;52.202;9.876;2023-05-02T12:07:47;101521.13;;;16.65;54.55
19676;BME280;39539;52.202;9.876;2023-05-02T12:10:36;101513.81;;;16.35;55.28
19676;BME280;39539;52.202;9.876;2023-05-02T12:13:07;101515.53;;;16.29;54.05
19676;BME280;39539;52.202;9.876;2023-05-02T12:15:34;101511.88;;;16.24;52.63
19676;BME280;39539;52.202;9.876;2023-05-02T12:18:23;101529.78;;;16.30;51.91
19676;BME280;39539;52.202;9.876;2023-05-02T12:20:50;101529.25;;;16.39;53.59
19676;BME280;39539;52.202;9.876;2023-05-02T12:23:22;101524.34;;;16.36;54.97
19676;BME280;39539;52.202;9.876;2023-05-02T12:25:49;101521.72;;;16.11;53.02
19676;BME280;39539;52.202;9.876;2023-05-02T12:28:17;101520.84;;;16.17;52.20
19676;BME280;39539;52.202;9.876;2023-05-02T12:30:45;101512.34;;;16.39;52.87
19676;BME280;39539;52.202;9.876;2023-05-02T12:33:17;101526.50;;;16.46;51.61
19676;BME280;39539;52.202;9.876;2023-05-02T12:35:43;101534.69;;;16.51;51.59
19676;BME280;39539;52.202;9.876;2023-05-02T12:38:15;101535.56;;;16.64;51.72
19676;BME280;39539;52.202;9.876;2023-05-02T12:40:50;101536.63;;;16.81;51.19
19676;BME280;39539;52.202;9.876;2023-05-02T12:43:16;101526.91;;;16.61;50.56
19676;BME280;39539;52.202;9.876;2023-05-02T12:45:42;101530.06;;;16.58;52.83
19676;BME280;39539;52.202;9.876;2023-05-02T12:48:24;101536.56;;;16.32;52.84
19676;BME280;39539;52.202;9.876;2023-05-02T12:50:56;101543.94;;;16.37;51.66
19676;BME280;39539;52.202;9.876;2023-05-02T12:53:42;101543.34;;;16.35;50.91
19676;BME280;39539;52.202;9.876;2023-05-02T12:56:13;101536.56;;;16.14;51.87
19676;BME280;39539;52.202;9.876;2023-05-02T12:58:46;101545.19;;;16.16;53.23
19676;BME280;39539;52.202;9.876;2023-05-02T13:01:14;101555.25;;;16.02;51.37
19676;BME280;39539;52.202;9.876;2023-05-02T13:03:42;101534.91;;;15.69;52.52
19676;BME280;39539;52.202;9.876;2023-05-02T13:06:12;101550.19;;;15.62;51.33
19676;BME280;39539;52.202;9.876;2023-05-02T13:08:38;101542.38;;;15.61;50.98
19676;BME280;39539;52.202;9.876;2023-05-02T13:11:03;101547.34;;;15.57;52.56
19676;BME280;39539;52.202;9.876;2023-05-02T13:13:29;101543.06;;;15.24;52.56
19676;BME280;39539;52.202;9.876;2023-05-02T13:15:55;101540.13;;;14.94;52.48
19676;BME280;39539;52.202;9.876;2023-05-02T13:18:23;101537.94;;;14.85;52.37
19676;BME280;39539;52.202;9.876;2023-05-02T13:20:49;101542.47;;;14.77;53.84
19676;BME280;39539;52.202;9.876;2023-05-02T13:23:16;101548.03;;;14.82;53.11
19676;BME280;39539;52.202;9.876;2023-05-02T13:25:41;101545.56;;;14.74;54.51
19676;BME280;39539;52.202;9.876;2023-05-02T13:28:08;101554.34;;;14.95;54.53
19676;BME280;39539;52.202;9.876;2023-05-02T13:30:34;101544.16;;;15.42;52.58